sensor_id;sensor_type;location;lat;lon;timestamp;temperature;humidity
17762;DHT22;9005;48.838;10.112;2023-05-02T00:01:34;8.10;99.90
17762;DHT22;9005;48.838;10.112;2023-05-02T00:04:01;8.10;99.90
17762;DHT22;9005;48.838;10.112;2023-05-02T00:06:29;8.10;99.90
17762;DHT22;9005;48.838;10.112;2023-05-02T00:08:58;8.10;99.90
17762;DHT22;9005;48.838;10.112;2023-05-02T00:11:24;8.10;99.90
17762;DHT22;9005;48.838;10.112;2023-05-02T00:13:51;8.00;99.90
17762;DHT22;9005;48.838;10.112;2023-05-02T00:16:18;8.00;99.90
17762;DHT22;9005;48.838;10.112;2023-05-02T00:18:45;8.00;99.90
17762;DHT22;9005;48.838;10.112;2023-05-02T00:21:11;7.90;99.90
17762;DHT22;9005;48.838;10.112;2023-05-02T00:23:38;7.90;99.90
17762;DHT22;9005;48.838;10.112;2023-05-02T00:26:09;7.90;99.90
17762;DHT22;9005;48.838;10.112;2023-05-02T00:28:36;7.90;99.90
17762;DHT22;9005;48.838;10.112;2023-05-02T00:31:03;7.90;99.90
17762;DHT22;9005;48.838;10.112;2023-05-02T00:33:30;7.80;99.90
17762;DHT22;9005;48.838;10.112;2023-05-02T00:35:57;7.80;99.90
17762;DHT22;9005;48.838;10.112;2023-05-02T00:38:23;7.80;99.90
17762;DHT22;9005;48.838;10.112;2023-05-02T00:40:50;7.80;99.90
17762;DHT22;9005;48.838;10.112;2023-05-02T00:43:19;7.80;99.90
17762;DHT22;9005;48.838;10.112;2023-05-02T00:45:46;7.80;99.90
17762;DHT22;9005;48.838;10.112;2023-05-02T00:48:12;7.80;99.90
17762;DHT22;9005;48.838;10.112;2023-05-02T00:50:41;7.70;99.90
17762;DHT22;9005;48.838;10.112;2023-05-02T00:53:08;7.70;99.90
17762;DHT22;9005;48.838;10.112;2023-05-02T00:55:35;7.70;99.90
17762;DHT22;9005;48.838;10.112;2023-05-02T00:58:05;7.70;99.90
17762;DHT22;9005;48.838;10.112;2023-05-02T01:00:42;7.70;99.90
17762;DHT22;9005;48.838;10.112;2023-05-02T01:03:19;7.60;99.90
17762;DHT22;9005;48.838;10.112;2023-05-02T01:05:52;7.60;99.90
17762;DHT22;9005;48.838;10.112;2023-05-02T01:08:29;7.60;99.90
17762;DHT22;9005;48.838;10.112;2023-05-02T01:11:02;7.60;99.90
17762;DHT22;9005;48.838;10.112;2023-05-02T01:13:32;7.50;99.90
17762;DHT22;9005;48.838;10.112;2023-05-02T01:16:02;8.70;99.90
17762;DHT22;9005;48.838;10.112;2023-05-02T01:18:34;7.90;99.90
17762;DHT22;9005;48.838;10.112;2023-05-02T01:21:04;7.50;99.90
17762;DHT22;9005;48.838;10.112;2023-05-02T01:23:44;7.40;99.90
17762;DHT22;9005;48.838;10.112;2023-05-02T01:26:18;7.40;99.90
17762;DHT22;9005;48.838;10.112;2023-05-02T01:28:58;7.40;99.90
17762;DHT22;9005;48.838;10.112;2023-05-02T01:31:26;7.30;99.90
17762;DHT22;9005;48.838;10.112;2023-05-02T01:33:55;7.30;99.90
17762;DHT22;9005;48.838;10.112;2023-05-02T01:36:24;7.20;99.90
17762;DHT22;9005;48.838;10.112;2023-05-02T01:38:53;7.20;99.90
17762;DHT22;9005;48.838;10.112;2023-05-02T01:41:22;7.10;99.90
17762;DHT22;9005;48.838;10.112;2023-05-02T01:43:51;7.10;99.90
17762;DHT22;9005;48.838;10.112;2023-05-02T01:46:21;7.10;99.90
17762;DHT22;9005;48.838;10.112;2023-05-02T01:48:50;7.10;99.90
17762;DHT22;9005;48.838;10.112;2023-05-02T01:51:18;7.10;99.90
17762;DHT22;9005;48.838;10.112;2023-05-02T01:53:47;7.00;99.90
17762;DHT22;9005;48.838;10.112;2023-05-02T01:56:17;7.00;99.90
17762;DHT22;9005;48.838;10.112;2023-05-02T01:58:45;7.00;99.90
17762;DHT22;9005;48.838;10.112;2023-05-02T02:01:13;7.00;99.90
17762;DHT22;9005;48.838;10.112;2023-05-02T02:03:43;7.00;99.90
17762;DHT22;9005;48.838;10.112;2023-05-02T02:06:10;6.90;99.90
17762;DHT22;9005;48.838;10.112;2023-05-02T02:08:37;6.80;99.90
17762;DHT22;9005;48.838;10.112;2023-05-02T02:11:08;6.80;99.90
17762;DHT22;9005;48.838;10.112;2023-05-02T02:13:40;6.80;99.90
17762;DHT22;9005;48.838;10.112;2023-05-02T02:16:11;6.80;99.90
17762;DHT22;9005;48.838;10.112;2023-05-02T02:18:43;6.80;99.90
17762;DHT22;9005;48.838;10.112;2023-05-02T02:21:11;6.70;99.90
17762;DHT22;9005;48.838;10.112;2023-05-02T02:23:39;6.70;99.90
17762;DHT22;9005;48.838;10.112;2023-05-02T02:26:08;6.70;99.90
17762;DHT22;9005;48.838;10.112;2023-05-02T02:28:35;6.70;99.90
17762;DHT22;9005;48.838;10.112;2023-05-02T02:31:02;6.70;99.90
17762;DHT22;9005;48.838;10.112;2023-05-02T02:33:29;6.70;99.90
17762;DHT22;9005;48.838;10.112;2023-05-02T02:36:04;6.70;99.90
17762;DHT22;9005;48.838;10.112;2023-05-02T02:38:37;6.60;99.90
17762;DHT22;9005;48.838;10.112;2023-05-02T02:41:12;6.70;99.90
17762;DHT22;9005;48.838;10.112;2023-05-02T02:43:49;6.60;99.90
17762;DHT22;9005;48.838;10.112;2023-05-02T02:46:28;6.60;99.90
17762;DHT22;9005;48.838;10.112;2023-05-02T02:49:06;6.60;99.90
17762;DHT22;9005;48.838;10.112;2023-05-02T02:51:43;6.50;99.90
17762;DHT22;9005;48.838;10.112;2023-05-02T02:54:14;6.50;99.90
17762;DHT22;9005;48.838;10.112;2023-05-02T02:56:46;6.50;99.90
17762;DHT22;9005;48.838;10.112;2023-05-02T02:59:19;6.40;99.90
17762;DHT22;9005;48.838;10.112;2023-05-02T03:01:55;6.40;99.90
17762;DHT22;9005;48.838;10.112;2023-05-02T03:04:22;6.30;99.90
17762;DHT22;9005;48.838;10.112;2023-05-02T03:06:51;6.30;99.90
17762;DHT22;9005;48.838;10.112;2023-05-02T03:09:18;6.30;99.90
17762;DHT22;9005;48.838;10.112;2023-05-02T03:11:44;6.20;99.90
17762;DHT22;9005;48.838;10.112;2023-05-02T03:14:11;6.30;99.90
17762;DHT22;9005;48.838;10.112;2023-05-02T03:16:39;6.30;99.90
17762;DHT22;9005;48.838;10.112;2023-05-02T03:19:06;6.20;99.90
17762;DHT22;9005;48.838;10.112;2023-05-02T03:21:34;6.20;99.90
17762;DHT22;9005;48.838;10.112;2023-05-02T03:24:03;6.30;99.90
17762;DHT22;9005;48.838;10.112;2023-05-02T03:26:30;6.20;99.90
17762;DHT22;9005;48.838;10.112;2023-05-02T03:28:57;6.30;99.90
17762;DHT22;9005;48.838;10.112;2023-05-02T03:31:23;6.40;99.90
17762;DHT22;9005;48.838;10.112;2023-05-02T03:33:50;6.40;99.90
17762;DHT22;9005;48.838;10.112;2023-05-02T03:36:17;6.40;99.90
17762;DHT22;9005;48.838;10.112;2023-05-02T03:38:44;6.40;99.90
17762;DHT22;9005;48.838;10.112;2023-05-02T03:41:12;6.40;99.90
17762;DHT22;9005;48.838;10.112;2023-05-02T03:43:39;6.40;99.90
17762;DHT22;9005;48.838;10.112;2023-05-02T03:46:07;6.50;99.90
17762;DHT22;9005;48.838;10.112;2023-05-02T03:48:34;6.50;99.90
17762;DHT22;9005;48.838;10.112;2023-05-02T03:51:01;6.60;99.90
17762;DHT22;9005;48.838;10.112;2023-05-02T03:53:28;6.60;99.90
17762;DHT22;9005;48.838;10.112;2023-05-02T03:55:56;6.70;99.90
17762;DHT22;9005;48.838;10.112;2023-05-02T03:58:24;6.80;99.90
17762;DHT22;9005;48.838;10.112;2023-05-02T04:00:51;7.00;99.90
17762;DHT22;9005;48.838;10.112;2023-05-02T04:03:18;7.10;99.90
17762;DHT22;9005;48.838;10.112;2023-05-02T04:05:45;7.20;99.90
17762;DHT22;9005;48.838;10.112;2023-05-02T04:08:11;7.20;99.90
17762;DHT22;9005;48.838;10.112;2023-05-02T04:10:38;7.20;99.90
17762;DHT22;9005;48.838;10.112;2023-05-02T04:13:05;7.30;99.90
17762;DHT22;9005;48.838;10.112;2023-05-02T04:15:33;7.40;99.90
17762;DHT22;9005;48.838;10.112;2023-05-02T04:18:00;7.50;99.90
17762;DHT22;9005;48.838;10.112;2023-05-02T04:20:28;7.50;99.90
17762;DHT22;9005;48.838;10.112;2023-05-02T04:22:55;7.60;99.90
17762;DHT22;9005;48.838;10.112;2023-05-02T04:25:22;7.60;99.90
17762;DHT22;9005;48.838;10.112;2023-05-02T04:27:48;7.60;99.90
17762;DHT22;9005;48.838;10.112;2023-05-02T04:30:15;7.60;99.90
17762;DHT22;9005;48.838;10.112;2023-05-02T04:32:43;7.70;99.90
17762;DHT22;9005;48.838;10.112;2023-05-02T04:35:10;7.70;99.90
17762;DHT22;9005;48.838;10.112;2023-05-02T04:37:37;7.70;99.90
17762;DHT22;9005;48.838;10.112;2023-05-02T04:40:04;7.80;99.90
17762;DHT22;9005;48.838;10.112;2023-05-02T04:42:32;7.90;99.90
17762;DHT22;9005;48.838;10.112;2023-05-02T04:44:59;7.90;99.90
17762;DHT22;9005;48.838;10.112;2023-05-02T04:47:26;8.10;99.90
17762;DHT22;9005;48.838;10.112;2023-05-02T04:49:54;8.10;99.90
17762;DHT22;9005;48.838;10.112;2023-05-02T04:52:20;8.20;99.90
17762;DHT22;9005;48.838;10.112;2023-05-02T04:54:47;8.20;99.90
17762;DHT22;9005;48.838;10.112;2023-05-02T05:09:32;9.00;99.90
17762;DHT22;9005;48.838;10.112;2023-05-02T05:11:58;8.90;99.90
17762;DHT22;9005;48.838;10.112;2023-05-02T05:14:26;8.80;99.90
17762;DHT22;9005;48.838;10.112;2023-05-02T05:16:53;8.80;99.90
17762;DHT22;9005;48.838;10.112;2023-05-02T05:19:19;8.80;99.90
17762;DHT22;9005;48.838;10.112;2023-05-02T05:21:46;8.80;99.90
17762;DHT22;9005;48.838;10.112;2023-05-02T05:24:14;8.90;99.90
17762;DHT22;9005;48.838;10.112;2023-05-02T05:26:41;8.90;99.90
17762;DHT22;9005;48.838;10.112;2023-05-02T05:29:07;8.80;99.90
17762;DHT22;9005;48.838;10.112;2023-05-02T05:31:34;8.80;99.90
17762;DHT22;9005;48.838;10.112;2023-05-02T05:34:01;8.80;99.90
17762;DHT22;9005;48.838;10.112;2023-05-02T05:36:29;8.90;99.90
17762;DHT22;9005;48.838;10.112;2023-05-02T05:38:55;8.90;99.90
17762;DHT22;9005;48.838;10.112;2023-05-02T05:41:23;8.90;99.90
17762;DHT22;9005;48.838;10.112;2023-05-02T05:43:50;8.90;99.90
17762;DHT22;9005;48.838;10.112;2023-05-02T05:46:17;8.90;99.90
17762;DHT22;9005;48.838;10.112;2023-05-02T05:48:43;9.00;99.90
17762;DHT22;9005;48.838;10.112;2023-05-02T05:51:10;9.10;99.90
17762;DHT22;9005;48.838;10.112;2023-05-02T05:53:37;9.20;99.90
17762;DHT22;9005;48.838;10.112;2023-05-02T05:56:10;9.20;99.90
17762;DHT22;9005;48.838;10.112;2023-05-02T05:58:38;9.30;99.90
17762;DHT22;9005;48.838;10.112;2023-05-02T06:01:06;9.40;99.90
17762;DHT22;9005;48.838;10.112;2023-05-02T06:03:33;9.50;99.90
17762;DHT22;9005;48.838;10.112;2023-05-02T06:06:00;9.60;99.90
17762;DHT22;9005;48.838;10.112;2023-05-02T06:08:26;9.80;99.90
17762;DHT22;9005;48.838;10.112;2023-05-02T06:10:53;9.80;99.90
17762;DHT22;9005;48.838;10.112;2023-05-02T06:13:20;9.90;99.90
17762;DHT22;9005;48.838;10.112;2023-05-02T06:15:48;10.00;99.90
17762;DHT22;9005;48.838;10.112;2023-05-02T06:18:14;10.10;99.90
17762;DHT22;9005;48.838;10.112;2023-05-02T06:20:41;10.20;99.90
17762;DHT22;9005;48.838;10.112;2023-05-02T06:23:08;10.30;99.90
17762;DHT22;9005;48.838;10.112;2023-05-02T06:25:36;10.40;99.90
17762;DHT22;9005;48.838;10.112;2023-05-02T06:28:03;10.50;99.90
17762;DHT22;9005;48.838;10.112;2023-05-02T07:09:48;10.10;99.90
17762;DHT22;9005;48.838;10.112;2023-05-02T07:12:15;10.00;99.90
17762;DHT22;9005;48.838;10.112;2023-05-02T07:14:42;10.00;99.90
17762;DHT22;9005;48.838;10.112;2023-05-02T07:17:11;9.90;99.90
17762;DHT22;9005;48.838;10.112;2023-05-02T07:19:38;9.80;99.90
17762;DHT22;9005;48.838;10.112;2023-05-02T07:22:04;9.80;99.90
17762;DHT22;9005;48.838;10.112;2023-05-02T07:24:33;9.70;99.90
17762;DHT22;9005;48.838;10.112;2023-05-02T07:26:59;9.70;99.90
17762;DHT22;9005;48.838;10.112;2023-05-02T07:29:27;9.70;99.90
17762;DHT22;9005;48.838;10.112;2023-05-02T07:31:54;9.80;99.90
17762;DHT22;9005;48.838;10.112;2023-05-02T07:34:21;9.80;99.90
17762;DHT22;9005;48.838;10.112;2023-05-02T07:36:47;9.90;99.90
17762;DHT22;9005;48.838;10.112;2023-05-02T07:39:14;9.90;99.90
17762;DHT22;9005;48.838;10.112;2023-05-02T07:41:42;10.00;99.90
17762;DHT22;9005;48.838;10.112;2023-05-02T07:44:10;10.00;99.90
17762;DHT22;9005;48.838;10.112;2023-05-02T07:46:36;10.00;99.90
17762;DHT22;9005;48.838;10.112;2023-05-02T07:49:03;10.00;99.90
17762;DHT22;9005;48.838;10.112;2023-05-02T07:51:30;10.10;99.90
17762;DHT22;9005;48.838;10.112;2023-05-02T07:53:57;10.20;99.90
17762;DHT22;9005;48.838;10.112;2023-05-02T07:56:24;10.30;99.90
17762;DHT22;9005;48.838;10.112;2023-05-02T07:58:52;10.40;99.90
17762;DHT22;9005;48.838;10.112;2023-05-02T08:01:19;10.40;99.90
17762;DHT22;9005;48.838;10.112;2023-05-02T08:03:45;10.40;99.90
17762;DHT22;9005;48.838;10.112;2023-05-02T08:06:14;10.50;99.90
17762;DHT22;9005;48.838;10.112;2023-05-02T08:08:40;10.60;99.90
17762;DHT22;9005;48.838;10.112;2023-05-02T08:11:07;10.70;99.90
17762;DHT22;9005;48.838;10.112;2023-05-02T08:13:34;10.70;99.90
17762;DHT22;9005;48.838;10.112;2023-05-02T08:16:02;10.80;99.90
17762;DHT22;9005;48.838;10.112;2023-05-02T08:18:28;10.90;99.90
17762;DHT22;9005;48.838;10.112;2023-05-02T08:20:55;11.00;99.90
17762;DHT22;9005;48.838;10.112;2023-05-02T08:23:22;11.20;99.90
17762;DHT22;9005;48.838;10.112;2023-05-02T08:25:49;11.30;99.90
17762;DHT22;9005;48.838;10.112;2023-05-02T08:28:16;11.50;99.90
17762;DHT22;9005;48.838;10.112;2023-05-02T08:30:43;11.50;99.90
17762;DHT22;9005;48.838;10.112;2023-05-02T08:33:12;11.70;99.90
17762;DHT22;9005;48.838;10.112;2023-05-02T08:35:38;11.70;99.90
17762;DHT22;9005;48.838;10.112;2023-05-02T08:38:05;11.80;99.90
17762;DHT22;9005;48.838;10.112;2023-05-02T08:40:34;11.80;99.90
17762;DHT22;9005;48.838;10.112;2023-05-02T08:43:02;11.80;99.90
17762;DHT22;9005;48.838;10.112;2023-05-02T08:45:30;11.90;99.90
17762;DHT22;9005;48.838;10.112;2023-05-02T08:48:04;12.00;99.90
17762;DHT22;9005;48.838;10.112;2023-05-02T08:50:35;12.00;99.90
17762;DHT22;9005;48.838;10.112;2023-05-02T08:53:04;12.20;99.90
17762;DHT22;9005;48.838;10.112;2023-05-02T08:55:31;12.40;99.90
17762;DHT22;9005;48.838;10.112;2023-05-02T08:57:58;12.50;99.90
17762;DHT22;9005;48.838;10.112;2023-05-02T09:00:26;12.70;99.90
17762;DHT22;9005;48.838;10.112;2023-05-02T09:03:03;12.80;99.90
17762;DHT22;9005;48.838;10.112;2023-05-02T09:05:38;13.00;99.90
17762;DHT22;9005;48.838;10.112;2023-05-02T09:08:06;13.20;57.70
17762;DHT22;9005;48.838;10.112;2023-05-02T09:10:34;13.30;49.00
17762;DHT22;9005;48.838;10.112;2023-05-02T09:13:29;13.20;44.60
17762;DHT22;9005;48.838;10.112;2023-05-02T09:15:57;12.90;99.90
17762;DHT22;9005;48.838;10.112;2023-05-02T09:18:27;12.90;99.90
17762;DHT22;9005;48.838;10.112;2023-05-02T09:20:57;12.90;99.90
17762;DHT22;9005;48.838;10.112;2023-05-02T09:23:32;13.00;97.60
17762;DHT22;9005;48.838;10.112;2023-05-02T09:25:59;13.20;88.80
17762;DHT22;9005;48.838;10.112;2023-05-02T09:28:40;13.30;78.50
17762;DHT22;9005;48.838;10.112;2023-05-02T09:31:08;13.60;62.70
17762;DHT22;9005;48.838;10.112;2023-05-02T09:33:35;13.70;24.20
17762;DHT22;9005;48.838;10.112;2023-05-02T09:36:04;13.80;16.50
17762;DHT22;9005;48.838;10.112;2023-05-02T09:38:32;14.00;28.80
17762;DHT22;9005;48.838;10.112;2023-05-02T09:40:59;14.10;1.00
17762;DHT22;9005;48.838;10.112;2023-05-02T09:43:28;14.10;1.00
17762;DHT22;9005;48.838;10.112;2023-05-02T09:45:59;14.00;1.00
17762;DHT22;9005;48.838;10.112;2023-05-02T09:48:27;13.70;1.00
17762;DHT22;9005;48.838;10.112;2023-05-02T09:50:54;13.50;28.60
17762;DHT22;9005;48.838;10.112;2023-05-02T09:53:24;13.40;34.10
17762;DHT22;9005;48.838;10.112;2023-05-02T09:55:59;13.40;42.60
17762;DHT22;9005;48.838;10.112;2023-05-02T09:58:26;13.50;30.60
17762;DHT22;9005;48.838;10.112;2023-05-02T10:00:55;13.60;1.00
17762;DHT22;9005;48.838;10.112;2023-05-02T10:03:23;13.80;8.50
17762;DHT22;9005;48.838;10.112;2023-05-02T10:05:50;14.10;1.00
17762;DHT22;9005;48.838;10.112;2023-05-02T10:08:19;15.30;1.00
17762;DHT22;9005;48.838;10.112;2023-05-02T10:10:50;15.20;1.00
17762;DHT22;9005;48.838;10.112;2023-05-02T10:13:19;16.00;99.90
17762;DHT22;9005;48.838;10.112;2023-05-02T10:15:49;16.70;99.90
17762;DHT22;9005;48.838;10.112;2023-05-02T10:18:20;16.80;99.90
17762;DHT22;9005;48.838;10.112;2023-05-02T10:20:54;16.80;1.00
17762;DHT22;9005;48.838;10.112;2023-05-02T10:23:24;16.70;1.00
17762;DHT22;9005;48.838;10.112;2023-05-02T10:25:53;16.50;1.00
17762;DHT22;9005;48.838;10.112;2023-05-02T10:28:20;16.60;1.00
17762;DHT22;9005;48.838;10.112;2023-05-02T10:30:47;17.50;1.00
17762;DHT22;9005;48.838;10.112;2023-05-02T10:33:15;19.10;99.90
17762;DHT22;9005;48.838;10.112;2023-05-02T10:35:43;20.80;22.30
17762;DHT22;9005;48.838;10.112;2023-05-02T10:38:12;21.40;1.00
17762;DHT22;9005;48.838;10.112;2023-05-02T10:40:40;21.70;15.20
17762;DHT22;9005;48.838;10.112;2023-05-02T10:43:13;21.70;1.00
17762;DHT22;9005;48.838;10.112;2023-05-02T10:45:41;21.90;9.90
17762;DHT22;9005;48.838;10.112;2023-05-02T10:48:15;22.60;9.10
17762;DHT22;9005;48.838;10.112;2023-05-02T10:50:44;22.60;7.90
17762;DHT22;9005;48.838;10.112;2023-05-02T10:56:15;21.90;12.40
17762;DHT22;9005;48.838;10.112;2023-05-02T10:58:44;22.90;16.80
17762;DHT22;9005;48.838;10.112;2023-05-02T11:01:33;23.80;6.40
17762;DHT22;9005;48.838;10.112;2023-05-02T11:04:03;24.50;1.00
17762;DHT22;9005;48.838;10.112;2023-05-02T11:06:31;25.20;15.70
17762;DHT22;9005;48.838;10.112;2023-05-02T11:09:30;26.60;2.20
17762;DHT22;9005;48.838;10.112;2023-05-02T11:11:58;28.00;39.20
17762;DHT22;9005;48.838;10.112;2023-05-02T11:14:46;29.50;99.90
17762;DHT22;9005;48.838;10.112;2023-05-02T11:17:15;29.40;1.00
17762;DHT22;9005;48.838;10.112;2023-05-02T11:22:58;24.50;99.90
17762;DHT22;9005;48.838;10.112;2023-05-02T11:25:29;22.70;1.00
17762;DHT22;9005;48.838;10.112;2023-05-02T11:27:56;21.50;1.00
17762;DHT22;9005;48.838;10.112;2023-05-02T11:30:38;20.10;1.00
17762;DHT22;9005;48.838;10.112;2023-05-02T11:33:18;18.60;1.00
17762;DHT22;9005;48.838;10.112;2023-05-02T11:35:46;17.80;23.00
17762;DHT22;9005;48.838;10.112;2023-05-02T11:38:15;17.40;26.50
17762;DHT22;9005;48.838;10.112;2023-05-02T11:40:53;17.80;10.70
17762;DHT22;9005;48.838;10.112;2023-05-02T11:43:21;19.50;1.00
17762;DHT22;9005;48.838;10.112;2023-05-02T11:45:51;22.00;1.00
17762;DHT22;9005;48.838;10.112;2023-05-02T11:48:19;23.60;1.00
17762;DHT22;9005;48.838;10.112;2023-05-02T11:50:49;23.70;1.00
17762;DHT22;9005;48.838;10.112;2023-05-02T11:53:17;23.20;1.00
17762;DHT22;9005;48.838;10.112;2023-05-02T11:55:47;22.60;1.00
17762;DHT22;9005;48.838;10.112;2023-05-02T11:58:15;22.70;1.00
17762;DHT22;9005;48.838;10.112;2023-05-02T12:00:43;22.30;1.00
17762;DHT22;9005;48.838;10.112;2023-05-02T12:03:27;21.70;1.00
17762;DHT22;9005;48.838;10.112;2023-05-02T12:05:55;22.20;1.00
17762;DHT22;9005;48.838;10.112;2023-05-02T12:08:24;23.10;1.00
17762;DHT22;9005;48.838;10.112;2023-05-02T12:10:52;23.20;1.00
17762;DHT22;9005;48.838;10.112;2023-05-02T12:13:21;23.40;1.00
17762;DHT22;9005;48.838;10.112;2023-05-02T12:15:49;23.50;1.00
17762;DHT22;9005;48.838;10.112;2023-05-02T12:18:16;24.40;1.00
17762;DHT22;9005;48.838;10.112;2023-05-02T12:20:45;24.40;1.00
17762;DHT22;9005;48.838;10.112;2023-05-02T12:23:12;23.30;1.00
17762;DHT22;9005;48.838;10.112;2023-05-02T12:25:39;21.70;1.00
17762;DHT22;9005;48.838;10.112;2023-05-02T12:28:07;21.60;1.00
17762;DHT22;9005;48.838;10.112;2023-05-02T12:30:36;22.00;1.00
17762;DHT22;9005;48.838;10.112;2023-05-02T12:33:04;22.40;1.00
17762;DHT22;9005;48.838;10.112;2023-05-02T12:35:32;22.30;1.00
17762;DHT22;9005;48.838;10.112;2023-05-02T12:38:12;22.10;1.00
17762;DHT22;9005;48.838;10.112;2023-05-02T12:40:46;21.70;1.00
17762;DHT22;9005;48.838;10.112;2023-05-02T12:43:13;21.80;1.00
17762;DHT22;9005;48.838;10.112;2023-05-02T12:45:40;21.80;1.00
17762;DHT22;9005;48.838;10.112;2023-05-02T12:48:18;21.80;1.00
17762;DHT22;9005;48.838;10.112;2023-05-02T12:50:45;22.10;1.00
17762;DHT22;9005;48.838;10.112;2023-05-02T12:53:13;21.70;1.00
17762;DHT22;9005;48.838;10.112;2023-05-02T12:55:40;22.00;1.00
17762;DHT22;9005;48.838;10.112;2023-05-02T12:58:08;21.90;1.00
17762;DHT22;9005;48.838;10.112;2023-05-02T13:00:36;22.00;1.00
17762;DHT22;9005;48.838;10.112;2023-05-02T13:03:03;22.00;1.00
17762;DHT22;9005;48.838;10.112;2023-05-02T13:05:30;22.10;1.00
17762;DHT22;9005;48.838;10.112;2023-05-02T13:07:57;21.90;1.00
17762;DHT22;9005;48.838;10.112;2023-05-02T13:10:26;21.60;1.00
17762;DHT22;9005;48.838;10.112;2023-05-02T13:12:53;21.70;1.00
17762;DHT22;9005;48.838;10.112;2023-05-02T13:15:20;21.70;1.00
17762;DHT22;9005;48.838;10.112;2023-05-02T13:17:49;21.90;1.00
17762;DHT22;9005;48.838;10.112;2023-05-02T13:20:16;21.90;1.00
17762;DHT22;9005;48.838;10.112;2023-05-02T13:22:43;20.80;1.00
17762;DHT22;9005;48.838;10.112;2023-05-02T13:25:10;19.60;1.00
17762;DHT22;9005;48.838;10.112;2023-05-02T13:27:38;18.70;1.00
17762;DHT22;9005;48.838;10.112;2023-05-02T13:30:07;17.80;1.00
17762;DHT22;9005;48.838;10.112;2023-05-02T13:32:34;16.50;1.00
17762;DHT22;9005;48.838;10.112;2023-05-02T13:35:00;15.60;62.10
17762;DHT22;9005;48.838;10.112;2023-05-02T13:37:28;15.10;99.90
17762;DHT22;9005;48.838;10.112;2023-05-02T13:39:54;14.60;99.90
17762;DHT22;9005;48.838;10.112;2023-05-02T13:42:21;13.60;99.90
17762;DHT22;9005;48.838;10.112;2023-05-02T13:44:49;12.00;99.90
17762;DHT22;9005;48.838;10.112;2023-05-02T13:47:16;10.30;99.90
17762;DHT22;9005;48.838;10.112;2023-05-02T13:49:43;9.90;99.90
17762;DHT22;9005;48.838;10.112;2023-05-02T13:52:09;10.00;99.90
17762;DHT22;9005;48.838;10.112;2023-05-02T13:54:36;10.10;99.90
17762;DHT22;9005;48.838;10.112;2023-05-02T13:57:03;10.20;99.90
17762;DHT22;9005;48.838;10.112;2023-05-02T13:59:30;10.30;99.90
17762;DHT22;9005;48.838;10.112;2023-05-02T14:01:59;10.40;99.90
17762;DHT22;9005;48.838;10.112;2023-05-02T14:04:25;10.60;99.90
17762;DHT22;9005;48.838;10.112;2023-05-02T14:06:52;10.80;99.90
17762;DHT22;9005;48.838;10.112;2023-05-02T14:09:19;11.10;99.90
17762;DHT22;9005;48.838;10.112;2023-05-02T14:11:46;11.30;99.90
17762;DHT22;9005;48.838;10.112;2023-05-02T14:14:13;11.70;99.90
17762;DHT22;9005;48.838;10.112;2023-05-02T14:16:39;12.30;99.90
17762;DHT22;9005;48.838;10.112;2023-05-02T14:19:08;12.80;99.90
17762;DHT22;9005;48.838;10.112;2023-05-02T14:21:35;13.30;99.90
17762;DHT22;9005;48.838;10.112;2023-05-02T14:24:03;13.90;99.90
17762;DHT22;9005;48.838;10.112;2023-05-02T14:26:30;14.50;99.90
17762;DHT22;9005;48.838;10.112;2023-05-02T14:28:57;15.10;99.90
17762;DHT22;9005;48.838;10.112;2023-05-02T14:31:25;15.90;99.90
17762;DHT22;9005;48.838;10.112;2023-05-02T14:33:52;17.20;99.90
17762;DHT22;9005;48.838;10.112;2023-05-02T14:36:20;18.50;99.90
17762;DHT22;9005;48.838;10.112;2023-05-02T14:38:46;19.40;99.90
17762;DHT22;9005;48.838;10.112;2023-05-02T14:41:13;20.20;99.90
17762;DHT22;9005;48.838;10.112;2023-05-02T14:43:40;20.40;99.90
17762;DHT22;9005;48.838;10.112;2023-05-02T14:46:06;19.90;99.90
17762;DHT22;9005;48.838;10.112;2023-05-02T14:48:33;19.10;99.90
17762;DHT22;9005;48.838;10.112;2023-05-02T14:51:02;18.90;99.90
17762;DHT22;9005;48.838;10.112;2023-05-02T14:53:30;19.60;99.90
17762;DHT22;9005;48.838;10.112;2023-05-02T14:55:57;20.00;99.90
17762;DHT22;9005;48.838;10.112;2023-05-02T14:58:24;20.70;99.90
17762;DHT22;9005;48.838;10.112;2023-05-02T15:00:50;21.40;99.90
17762;DHT22;9005;48.838;10.112;2023-05-02T15:03:17;21.80;99.90
17762;DHT22;9005;48.838;10.112;2023-05-02T15:05:44;21.40;99.90
17762;DHT22;9005;48.838;10.112;2023-05-02T15:08:11;20.90;99.90
17762;DHT22;9005;48.838;10.112;2023-05-02T15:10:39;20.70;99.90
17762;DHT22;9005;48.838;10.112;2023-05-02T15:13:05;20.90;99.90
17762;DHT22;9005;48.838;10.112;2023-05-02T15:15:33;20.40;99.90
17762;DHT22;9005;48.838;10.112;2023-05-02T15:18:00;20.10;99.90
17762;DHT22;9005;48.838;10.112;2023-05-02T15:20:26;19.60;99.90
17762;DHT22;9005;48.838;10.112;2023-05-02T15:22:53;19.10;99.90
17762;DHT22;9005;48.838;10.112;2023-05-02T15:25:20;18.90;99.90
17762;DHT22;9005;48.838;10.112;2023-05-02T15:27:48;19.00;99.90
17762;DHT22;9005;48.838;10.112;2023-05-02T15:30:15;19.60;99.90
17762;DHT22;9005;48.838;10.112;2023-05-02T15:32:42;20.00;99.90
17762;DHT22;9005;48.838;10.112;2023-05-02T15:35:08;19.80;99.90
17762;DHT22;9005;48.838;10.112;2023-05-02T15:37:36;19.10;99.90
17762;DHT22;9005;48.838;10.112;2023-05-02T15:40:03;18.50;99.90
17762;DHT22;9005;48.838;10.112;2023-05-02T15:42:33;17.90;99.90
17762;DHT22;9005;48.838;10.112;2023-05-02T15:45:01;17.60;99.90
17762;DHT22;9005;48.838;10.112;2023-05-02T15:47:28;18.10;99.90
17762;DHT22;9005;48.838;10.112;2023-05-02T15:49:55;18.90;99.90
17762;DHT22;9005;48.838;10.112;2023-05-02T15:52:22;20.00;99.90
17762;DHT22;9005;48.838;10.112;2023-05-02T15:54:49;20.40;92.70
17762;DHT22;9005;48.838;10.112;2023-05-02T15:57:17;20.00;90.40
17762;DHT22;9005;48.838;10.112;2023-05-02T15:59:43;19.70;91.00
17762;DHT22;9005;48.838;10.112;2023-05-02T16:02:11;19.70;94.80
17762;DHT22;9005;48.838;10.112;2023-05-02T16:04:38;20.10;99.90
17762;DHT22;9005;48.838;10.112;2023-05-02T16:07:05;20.70;82.20
17762;DHT22;9005;48.838;10.112;2023-05-02T16:09:32;20.70;77.70
17762;DHT22;9005;48.838;10.112;2023-05-02T16:11:58;20.50;81.50
17762;DHT22;9005;48.838;10.112;2023-05-02T16:14:26;20.60;96.30
17762;DHT22;9005;48.838;10.112;2023-05-02T16:16:53;20.80;83.70
17762;DHT22;9005;48.838;10.112;2023-05-02T16:19:21;20.80;82.10
17762;DHT22;9005;48.838;10.112;2023-05-02T16:21:48;20.50;76.20
17762;DHT22;9005;48.838;10.112;2023-05-02T16:24:15;20.50;68.10
17762;DHT22;9005;48.838;10.112;2023-05-02T16:26:42;20.60;68.20
17762;DHT22;9005;48.838;10.112;2023-05-02T16:29:09;20.30;74.20
17762;DHT22;9005;48.838;10.112;2023-05-02T16:31:36;20.00;70.60
17762;DHT22;9005;48.838;10.112;2023-05-02T16:34:03;19.70;91.10
17762;DHT22;9005;48.838;10.112;2023-05-02T16:36:31;19.40;82.10
17762;DHT22;9005;48.838;10.112;2023-05-02T16:38:58;18.70;88.90
17762;DHT22;9005;48.838;10.112;2023-05-02T16:41:24;18.00;90.20
17762;DHT22;9005;48.838;10.112;2023-05-02T16:43:51;17.50;98.20
17762;DHT22;9005;48.838;10.112;2023-05-02T16:46:18;17.30;98.70